createdAt,value
2022-09-17T00:01:33.095Z,8.47
2022-09-17T00:04:04.936Z,8.41
2022-09-17T00:06:33.868Z,8.47
2022-09-17T00:09:01.716Z,8.36
2022-09-17T00:11:31.203Z,8.36
2022-09-17T00:14:01.825Z,8.40
2022-09-17T00:16:31.318Z,8.36
2022-09-17T00:19:00.030Z,8.34
2022-09-17T00:21:28.292Z,8.41
2022-09-17T00:23:56.971Z,8.43
2022-09-17T00:26:24.866Z,8.40
2022-09-17T00:28:52.687Z,8.41
2022-09-17T00:31:22.522Z,8.50
2022-09-17T00:33:50.632Z,8.44
2022-09-17T00:36:20.439Z,8.46
2022-09-17T00:38:50.202Z,8.45
2022-09-17T00:41:18.075Z,8.47
2022-09-17T00:43:47.585Z,8.40
2022-09-17T00:46:26.075Z,8.45
2022-09-17T00:48:54.569Z,8.39
2022-09-17T00:51:28.651Z,8.39
2022-09-17T00:53:56.714Z,8.51
2022-09-17T00:56:27.156Z,8.47
2022-09-17T00:58:55.847Z,8.49
2022-09-17T01:01:25.062Z,8.40
2022-09-17T01:03:52.699Z,8.38
2022-09-17T01:06:26.639Z,8.31
2022-09-17T01:09:04.815Z,8.39
2022-09-17T01:11:41.454Z,8.40
2022-09-17T01:14:19.582Z,8.42
2022-09-17T01:16:55.421Z,8.41
2022-09-17T01:19:45.400Z,8.36
2022-09-17T01:22:15.223Z,8.30
2022-09-17T01:25:17.881Z,8.35
2022-09-17T01:28:02.695Z,8.38
2022-09-17T01:30:41.480Z,8.37
2022-09-17T01:33:15.015Z,8.43
2022-09-17T01:35:47.515Z,8.37
2022-09-17T01:38:20.439Z,8.36
2022-09-17T01:40:51.365Z,8.31
2022-09-17T01:43:23.187Z,8.37
2022-09-17T01:45:53.348Z,8.36
2022-09-17T01:48:22.013Z,8.41
2022-09-17T01:50:53.558Z,8.38
2022-09-17T01:53:23.907Z,8.31
2022-09-17T01:55:53.161Z,8.33
2022-09-17T01:58:24.928Z,8.36
2022-09-17T02:00:57.372Z,8.32
2022-09-17T02:03:30.376Z,8.23
2022-09-17T02:06:01.664Z,8.30
2022-09-17T02:08:32.573Z,8.27
2022-09-17T02:11:04.615Z,8.32
2022-09-17T02:13:34.412Z,8.33
2022-09-17T02:16:07.287Z,8.33
2022-09-17T02:18:38.720Z,8.28
2022-09-17T02:21:09.755Z,8.23
2022-09-17T02:23:44.412Z,8.27
2022-09-17T02:26:14.797Z,8.36
2022-09-17T02:28:44.898Z,8.27
2022-09-17T02:31:14.059Z,8.37
2022-09-17T02:33:42.969Z,8.45
2022-09-17T02:36:10.568Z,8.34
2022-09-17T02:38:39.530Z,8.40
2022-09-17T02:41:14.338Z,8.42
2022-09-17T02:43:51.151Z,8.50
2022-09-17T02:46:32.560Z,8.51
2022-09-17T02:49:11.460Z,8.53
2022-09-17T02:51:46.331Z,8.56
2022-09-17T02:54:19.187Z,8.59
2022-09-17T02:56:51.998Z,8.61
2022-09-17T02:59:24.863Z,8.61
2022-09-17T03:01:58.105Z,8.68
2022-09-17T03:04:26.583Z,8.62
2022-09-17T03:06:54.209Z,8.67
2022-09-17T03:09:21.776Z,8.58
2022-09-17T03:11:49.285Z,8.67
2022-09-17T03:14:16.862Z,8.69
2022-09-17T03:16:44.412Z,8.61
2022-09-17T03:19:13.331Z,8.63
2022-09-17T03:21:40.825Z,8.61
2022-09-17T03:24:08.650Z,8.57
2022-09-17T03:26:36.164Z,8.58
2022-09-17T03:29:03.741Z,8.56
2022-09-17T03:31:31.304Z,8.64
2022-09-17T03:33:59.407Z,8.63
2022-09-17T03:36:28.422Z,8.62
2022-09-17T03:38:56.326Z,8.61
2022-09-17T03:41:24.542Z,8.74
2022-09-17T03:43:52.091Z,8.70
2022-09-17T03:46:20.254Z,8.66
2022-09-17T03:48:48.084Z,8.74
2022-09-17T03:51:15.651Z,8.78
2022-09-17T03:53:44.533Z,8.77
2022-09-17T03:56:12.092Z,8.73
2022-09-17T03:58:39.872Z,8.71
2022-09-17T04:01:07.608Z,8.76
2022-09-17T04:03:35.560Z,8.83
2022-09-17T04:06:03.154Z,8.78
2022-09-17T04:08:30.704Z,8.80
2022-09-17T04:10:59.614Z,8.82
2022-09-17T04:13:27.152Z,8.81
2022-09-17T04:15:54.941Z,8.87
2022-09-17T04:18:22.549Z,8.79
2022-09-17T04:20:50.102Z,8.86
2022-09-17T04:23:17.688Z,8.82
2022-09-17T04:25:45.247Z,8.86
2022-09-17T04:28:14.152Z,8.82
2022-09-17T04:30:42.903Z,8.89
2022-09-17T04:33:10.880Z,8.74
2022-09-17T04:35:38.440Z,8.92
2022-09-17T04:38:06.035Z,8.90
2022-09-17T04:40:33.667Z,8.87
2022-09-17T04:43:03.366Z,8.86
2022-09-17T04:45:33.334Z,8.87
2022-09-17T04:48:01.811Z,8.78
2022-09-17T04:50:29.404Z,8.84
2022-09-17T04:52:57.061Z,8.84
2022-09-17T04:55:25.266Z,8.81
2022-09-17T04:57:54.153Z,8.97
2022-09-17T05:00:22.696Z,9.00
2022-09-17T05:02:53.230Z,8.91
2022-09-17T05:05:21.370Z,8.97
2022-09-17T05:07:48.937Z,8.95
2022-09-17T05:10:18.022Z,8.85
2022-09-17T05:12:49.045Z,8.78
2022-09-17T05:15:17.458Z,8.90
2022-09-17T05:17:45.062Z,8.77
2022-09-17T05:20:14.496Z,8.74
2022-09-17T05:22:43.774Z,8.75
2022-09-17T05:25:12.041Z,8.90
2022-09-17T05:27:40.098Z,8.84
2022-09-17T05:30:09.086Z,8.81
2022-09-17T05:32:36.725Z,8.83
2022-09-17T05:35:05.907Z,8.75
2022-09-17T05:37:35.269Z,8.83
2022-09-17T05:40:03.383Z,8.76
2022-09-17T05:42:31.039Z,8.79
2022-09-17T05:44:58.557Z,8.85
2022-09-17T05:47:26.216Z,8.71
2022-09-17T05:49:53.782Z,8.76
2022-09-17T05:52:21.416Z,8.78
2022-09-17T05:54:50.318Z,8.83
2022-09-17T05:57:17.876Z,8.82
2022-09-17T05:59:45.401Z,8.90
2022-09-17T06:02:14.354Z,8.95
2022-09-17T06:04:41.938Z,8.99
2022-09-17T06:07:09.550Z,8.98
2022-09-17T06:09:38.468Z,9.15
2022-09-17T06:12:08.144Z,9.26
2022-09-17T06:14:35.676Z,9.26
2022-09-17T06:17:03.224Z,9.30
2022-09-17T06:19:30.776Z,9.49
2022-09-17T06:21:58.353Z,9.63
2022-09-17T06:24:25.905Z,9.61
2022-09-17T06:26:53.532Z,9.68
2022-09-17T06:29:22.445Z,9.73
2022-09-17T06:31:50.096Z,9.79
2022-09-17T06:34:18.215Z,9.86
2022-09-17T06:36:45.766Z,9.93
2022-09-17T06:39:13.405Z,10.00
2022-09-17T06:41:43.115Z,10.15
2022-09-17T06:44:10.668Z,10.38
2022-09-17T06:46:39.615Z,10.38
2022-09-17T06:49:07.173Z,10.52
2022-09-17T06:51:34.709Z,10.77
2022-09-17T06:54:02.415Z,10.81
2022-09-17T06:56:29.968Z,10.91
2022-09-17T06:58:57.557Z,11.03
2022-09-17T07:01:25.334Z,10.93
2022-09-17T07:03:54.784Z,10.88
2022-09-17T07:06:22.481Z,10.90
2022-09-17T07:08:51.133Z,11.12
2022-09-17T07:11:18.687Z,11.09
2022-09-17T07:13:46.293Z,11.14
2022-09-17T07:16:13.990Z,11.22
2022-09-17T07:18:41.516Z,11.36
2022-09-17T07:21:10.951Z,11.61
2022-09-17T07:23:38.835Z,11.59
2022-09-17T07:26:08.375Z,11.60
2022-09-17T07:28:36.066Z,11.89
2022-09-17T07:31:05.205Z,11.98
2022-09-17T07:33:33.795Z,12.03
2022-09-17T07:36:02.843Z,12.06
2022-09-17T07:38:32.137Z,12.03
2022-09-17T07:41:01.167Z,11.87
2022-09-17T07:43:29.883Z,11.86
2022-09-17T07:45:58.425Z,11.98
2022-09-17T07:48:26.411Z,12.02
2022-09-17T07:50:54.149Z,11.85
2022-09-17T07:53:22.582Z,12.07
2022-09-17T07:55:55.169Z,12.27
2022-09-17T07:58:23.008Z,12.32
2022-09-17T08:00:50.839Z,12.38
2022-09-17T08:03:18.523Z,12.10
2022-09-17T08:05:46.058Z,12.03
2022-09-17T08:08:14.244Z,11.84
2022-09-17T08:10:44.130Z,11.95
2022-09-17T08:13:13.053Z,12.19
2022-09-17T08:15:40.649Z,12.18
2022-09-17T08:18:08.537Z,12.45
2022-09-17T08:20:36.133Z,12.56
2022-09-17T08:23:03.684Z,12.39
2022-09-17T08:25:31.212Z,12.42
2022-09-17T08:27:58.769Z,12.65
2022-09-17T08:30:28.261Z,12.94
2022-09-17T08:32:56.658Z,12.98
2022-09-17T08:35:26.123Z,13.23
2022-09-17T08:37:55.641Z,13.40
2022-09-17T08:40:23.547Z,13.32
2022-09-17T08:42:56.526Z,13.16
2022-09-17T08:45:26.349Z,13.05
2022-09-17T08:47:57.209Z,13.03
2022-09-17T08:50:28.607Z,13.03
2022-09-17T08:53:21.314Z,13.14
2022-09-17T08:55:52.964Z,13.23
2022-09-17T08:58:38.943Z,13.17
2022-09-17T09:01:17.560Z,13.21
2022-09-17T09:03:59.593Z,13.46
2022-09-17T09:06:31.076Z,13.85
2022-09-17T09:09:03.748Z,13.95
2022-09-17T09:11:32.594Z,14.00
2022-09-17T09:14:05.572Z,14.23
2022-09-17T09:16:34.196Z,14.26
2022-09-17T09:19:16.065Z,14.29
2022-09-17T09:21:49.511Z,14.48
2022-09-17T09:24:20.579Z,14.88
2022-09-17T09:26:51.801Z,14.88
2022-09-17T09:29:29.011Z,14.98
2022-09-17T09:32:15.870Z,15.14
2022-09-17T09:34:46.907Z,15.22
2022-09-17T09:37:18.751Z,15.12
2022-09-17T09:39:47.326Z,14.95
2022-09-17T09:42:17.767Z,14.78
2022-09-17T09:44:45.342Z,14.50
2022-09-17T09:47:24.556Z,14.36
2022-09-17T09:50:08.135Z,14.26
2022-09-17T09:52:49.792Z,14.14
2022-09-17T09:55:33.858Z,14.02
2022-09-17T09:58:07.922Z,13.80
2022-09-17T10:00:37.663Z,13.89
2022-09-17T10:03:10.978Z,14.04
2022-09-17T10:05:40.014Z,14.04
2022-09-17T10:08:14.589Z,14.14
2022-09-17T10:10:55.865Z,13.99
2022-09-17T10:13:23.527Z,14.02
2022-09-17T10:15:51.149Z,14.02
2022-09-17T10:18:20.042Z,14.07
2022-09-17T10:20:54.114Z,14.18
2022-09-17T10:23:22.113Z,14.44
2022-09-17T10:25:52.070Z,14.48
2022-09-17T10:28:30.932Z,14.47
2022-09-17T10:30:59.323Z,14.35
2022-09-17T10:33:28.646Z,14.30
2022-09-17T10:36:01.270Z,14.31
2022-09-17T10:38:34.920Z,14.12
2022-09-17T10:41:17.757Z,14.03
2022-09-17T10:43:45.604Z,14.28
2022-09-17T10:46:17.141Z,14.49
2022-09-17T10:48:47.367Z,14.65
2022-09-17T10:51:23.921Z,14.83
2022-09-17T10:54:04.651Z,15.01
2022-09-17T10:56:36.346Z,15.21
2022-09-17T10:59:18.032Z,15.52
2022-09-17T11:01:56.160Z,15.51
2022-09-17T11:04:30.894Z,15.46
2022-09-17T11:07:30.421Z,15.23
2022-09-17T11:10:04.719Z,15.23
2022-09-17T11:12:42.392Z,15.58
2022-09-17T11:15:26.590Z,15.67
2022-09-17T11:18:04.239Z,15.50
2022-09-17T11:20:42.394Z,15.22
2022-09-17T11:23:27.674Z,15.02
2022-09-17T11:26:00.675Z,14.89
2022-09-17T11:28:43.983Z,14.74
2022-09-17T11:31:24.448Z,14.57
2022-09-17T11:34:06.440Z,14.48
2022-09-17T11:36:39.229Z,14.75
2022-09-17T11:39:12.149Z,14.98
2022-09-17T11:41:43.513Z,15.40
2022-09-17T11:44:14.420Z,15.53
2022-09-17T11:46:44.794Z,15.77
2022-09-17T11:49:17.925Z,15.97
2022-09-17T11:51:49.125Z,16.09
2022-09-17T11:54:22.990Z,16.23
2022-09-17T11:56:52.410Z,16.02
2022-09-17T11:59:26.204Z,15.73
2022-09-17T12:01:57.959Z,15.93
2022-09-17T12:04:38.521Z,16.11
2022-09-17T12:07:18.909Z,15.86
2022-09-17T12:09:51.277Z,15.90
2022-09-17T12:12:45.058Z,16.15
2022-09-17T12:15:16.658Z,16.38
2022-09-17T12:17:46.762Z,16.52
2022-09-17T12:20:23.649Z,16.85
2022-09-17T12:22:52.170Z,16.83
2022-09-17T12:25:21.794Z,16.98
2022-09-17T12:27:54.391Z,17.27
2022-09-17T12:30:25.771Z,17.40
2022-09-17T12:33:15.867Z,17.59
2022-09-17T12:36:10.842Z,17.65
2022-09-17T12:38:55.890Z,17.43
2022-09-17T12:41:30.653Z,17.51
2022-09-17T12:44:07.651Z,17.87
2022-09-17T12:46:55.605Z,17.69
2022-09-17T12:49:38.851Z,17.90
2022-09-17T12:52:09.386Z,17.63
2022-09-17T12:54:57.379Z,17.90
2022-09-17T12:57:33.624Z,18.15
2022-09-17T13:00:07.909Z,17.68
2022-09-17T13:02:39.534Z,17.68
2022-09-17T13:05:51.739Z,17.39
2022-09-17T13:09:00.602Z,17.05
2022-09-17T13:11:50.941Z,16.92
2022-09-17T13:14:26.549Z,16.72
2022-09-17T13:16:56.563Z,17.05
2022-09-17T13:19:32.280Z,16.99
2022-09-17T13:22:02.633Z,17.01
2022-09-17T13:24:31.549Z,17.18
2022-09-17T13:27:02.023Z,17.64
2022-09-17T13:30:03.667Z,17.56
2022-09-17T13:32:50.971Z,17.48
2022-09-17T13:35:52.447Z,17.56
2022-09-17T13:38:23.690Z,17.62
2022-09-17T13:40:59.393Z,17.39
2022-09-17T13:43:28.038Z,17.03
2022-09-17T13:46:17.784Z,17.04
2022-09-17T13:48:49.298Z,17.02
2022-09-17T13:51:59.443Z,16.70
2022-09-17T13:54:38.844Z,16.17
2022-09-17T13:57:10.171Z,14.85
2022-09-17T13:59:38.401Z,14.08
2022-09-17T14:02:32.685Z,13.61
2022-09-17T14:05:36.888Z,13.56
2022-09-17T14:08:14.017Z,13.86
2022-09-17T14:10:44.131Z,13.65
2022-09-17T14:13:27.013Z,13.41
2022-09-17T14:16:03.563Z,13.74
2022-09-17T14:18:36.954Z,13.92
2022-09-17T14:21:14.491Z,13.85
2022-09-17T14:23:46.936Z,13.90
2022-09-17T14:26:20.913Z,13.93
2022-09-17T14:28:51.497Z,13.90
2022-09-17T14:31:20.909Z,13.83
2022-09-17T14:33:49.904Z,13.87
2022-09-17T14:36:20.213Z,14.01
2022-09-17T14:38:49.120Z,14.23
2022-09-17T14:41:21.576Z,14.33
2022-09-17T14:43:51.675Z,14.43
2022-09-17T14:46:22.385Z,14.39
2022-09-17T14:48:51.704Z,14.28
2022-09-17T14:51:28.174Z,14.24
2022-09-17T14:54:22.526Z,14.15
2022-09-17T14:56:53.984Z,13.05
2022-09-17T14:59:30.612Z,12.54
2022-09-17T15:01:58.458Z,12.18
2022-09-17T15:04:28.649Z,11.77
2022-09-17T15:07:08.139Z,11.82
2022-09-17T15:09:35.726Z,11.84
2022-09-17T15:12:04.740Z,11.78
2022-09-17T15:14:33.992Z,11.76
2022-09-17T15:17:02.856Z,11.62
2022-09-17T15:19:35.962Z,11.52
2022-09-17T15:22:06.609Z,11.54
2022-09-17T15:24:39.969Z,11.51
2022-09-17T15:27:13.730Z,11.67
2022-09-17T15:29:43.900Z,11.77
2022-09-17T15:32:13.777Z,11.82
2022-09-17T15:34:42.855Z,11.91
2022-09-17T15:37:20.279Z,11.77
2022-09-17T15:39:52.913Z,11.67
2022-09-17T15:42:22.994Z,11.57
2022-09-17T15:44:50.911Z,11.60
2022-09-17T15:47:45.724Z,11.69
2022-09-17T15:50:16.891Z,11.70
2022-09-17T15:52:44.800Z,11.58
2022-09-17T15:55:30.460Z,11.48
2022-09-17T15:57:59.082Z,11.39
2022-09-17T16:00:27.065Z,11.40
2022-09-17T16:02:55.578Z,11.38
2022-09-17T16:05:55.628Z,11.46
2022-09-17T16:08:25.282Z,11.33
2022-09-17T16:10:53.104Z,11.32
2022-09-17T16:13:23.194Z,11.04
2022-09-17T16:15:54.185Z,11.12
2022-09-17T16:18:21.802Z,11.06
2022-09-17T16:20:50.837Z,11.15
2022-09-17T16:23:18.520Z,11.10
2022-09-17T16:25:46.066Z,10.94
2022-09-17T16:28:15.094Z,10.79
2022-09-17T16:30:45.987Z,10.80
2022-09-17T16:33:14.613Z,10.66
2022-09-17T16:35:43.042Z,10.81
2022-09-17T16:38:12.872Z,10.79
2022-09-17T16:40:44.035Z,10.84
2022-09-17T16:43:11.851Z,10.97
2022-09-17T16:45:39.774Z,10.94
2022-09-17T16:48:07.889Z,10.85
2022-09-17T16:50:36.347Z,10.77
2022-09-17T16:53:05.498Z,10.78
2022-09-17T16:55:34.556Z,10.83
2022-09-17T16:58:02.959Z,10.75
2022-09-17T17:00:30.570Z,10.71
2022-09-17T17:02:58.696Z,10.72
2022-09-17T17:05:27.766Z,10.79
2022-09-17T17:07:55.962Z,10.69
2022-09-17T17:10:23.945Z,10.61
2022-09-17T17:12:52.952Z,10.47
2022-09-17T17:15:21.554Z,10.43
2022-09-17T17:17:49.162Z,10.57
2022-09-17T17:20:16.856Z,10.46
2022-09-17T17:22:44.682Z,10.49
2022-09-17T17:25:13.962Z,10.42
2022-09-17T17:27:41.776Z,10.46
2022-09-17T17:30:16.675Z,10.47
2022-09-17T17:32:44.839Z,10.55
2022-09-17T17:35:12.825Z,10.55
2022-09-17T17:37:40.366Z,10.65
2022-09-17T17:40:09.584Z,10.68
2022-09-17T17:42:38.770Z,10.65
2022-09-17T17:45:07.844Z,10.59
2022-09-17T17:47:36.819Z,10.58
2022-09-17T17:50:05.046Z,10.55
2022-09-17T17:52:32.775Z,10.59
2022-09-17T17:55:00.319Z,10.47
2022-09-17T17:57:28.305Z,10.36
2022-09-17T17:59:55.886Z,10.30
2022-09-17T18:02:23.517Z,10.23
2022-09-17T18:04:52.533Z,10.13
2022-09-17T18:07:20.045Z,10.02
2022-09-17T18:09:47.796Z,10.05
2022-09-17T18:12:15.514Z,10.06
2022-09-17T18:14:43.052Z,10.03
2022-09-17T18:17:10.647Z,9.95
2022-09-17T18:19:38.301Z,9.93
2022-09-17T18:22:07.326Z,9.96
2022-09-17T18:24:34.893Z,9.95
2022-09-17T18:27:02.414Z,9.91
2022-09-17T18:29:30.089Z,9.76
2022-09-17T18:31:57.603Z,9.63
2022-09-17T18:34:25.308Z,9.61
2022-09-17T18:36:53.185Z,9.48
2022-09-17T18:42:09.676Z,9.41
2022-09-17T18:44:37.250Z,9.30
2022-09-17T18:47:04.914Z,9.16
2022-09-17T18:49:32.420Z,9.15
2022-09-17T18:51:59.929Z,9.16
2022-09-17T18:54:28.878Z,9.19
2022-09-17T18:56:56.591Z,9.16
2022-09-17T18:59:24.145Z,9.05
2022-09-17T19:01:51.745Z,9.14
2022-09-17T19:04:19.292Z,9.01
2022-09-17T19:06:46.882Z,9.03
2022-09-17T19:09:14.541Z,9.12
2022-09-17T19:11:43.460Z,9.25
2022-09-17T19:14:11.674Z,9.22
2022-09-17T19:16:39.606Z,9.06
2022-09-17T19:19:07.153Z,8.98
2022-09-17T19:21:34.742Z,8.85
2022-09-17T19:24:03.090Z,8.82
2022-09-17T19:26:30.636Z,8.79
2022-09-17T19:29:00.453Z,8.71
2022-09-17T19:31:28.693Z,8.75
2022-09-17T19:33:58.430Z,8.70
2022-09-17T19:36:26.079Z,8.83
2022-09-17T19:38:53.655Z,8.75
2022-09-17T19:41:23.005Z,8.77
2022-09-17T19:43:51.844Z,8.83
2022-09-17T19:46:22.260Z,8.82
2022-09-17T19:48:53.586Z,8.90
2022-09-17T19:51:24.360Z,8.82
2022-09-17T19:53:52.281Z,8.84
2022-09-17T19:56:21.942Z,8.75
2022-09-17T19:58:49.445Z,8.68
2022-09-17T20:01:17.376Z,8.70
2022-09-17T20:03:46.677Z,8.74
2022-09-17T20:06:15.874Z,8.79
2022-09-17T20:08:47.345Z,8.77
2022-09-17T20:11:16.030Z,8.84
2022-09-17T20:13:43.563Z,8.83
2022-09-17T20:16:12.980Z,8.90
2022-09-17T20:18:40.558Z,8.93
2022-09-17T20:21:10.354Z,8.96
2022-09-17T20:23:38.101Z,9.04
2022-09-17T20:26:06.469Z,9.11
2022-09-17T20:28:34.177Z,9.20
2022-09-17T20:31:03.146Z,9.07
2022-09-17T20:33:30.973Z,9.24
2022-09-17T20:35:59.926Z,9.19
2022-09-17T20:41:17.505Z,9.21
2022-09-17T20:43:46.436Z,9.12
2022-09-17T20:46:14.400Z,9.23
2022-09-17T20:48:42.276Z,9.23
2022-09-17T20:51:12.080Z,9.23
2022-09-17T20:53:42.019Z,9.30
2022-09-17T20:56:11.093Z,9.17
2022-09-17T20:58:45.251Z,9.15
2022-09-17T21:01:14.812Z,9.24
2022-09-17T21:03:43.561Z,9.26
2022-09-17T21:06:16.957Z,9.19
2022-09-17T21:08:46.397Z,9.26
2022-09-17T21:11:14.409Z,9.27
2022-09-17T21:13:42.427Z,9.31
2022-09-17T21:16:10.438Z,9.21
2022-09-17T21:18:39.766Z,9.20
2022-09-17T21:21:09.280Z,9.18
2022-09-17T21:23:38.023Z,9.17
2022-09-17T21:26:08.324Z,9.13
2022-09-17T21:28:36.939Z,9.30
2022-09-17T21:31:06.093Z,9.30
2022-09-17T21:33:33.708Z,9.35
2022-09-17T21:36:06.131Z,9.33
2022-09-17T21:38:33.854Z,9.29
2022-09-17T21:41:03.316Z,9.25
2022-09-17T21:43:32.475Z,9.18
2022-09-17T21:46:04.486Z,9.30
2022-09-17T21:48:33.965Z,9.20
2022-09-17T21:51:06.305Z,9.23
2022-09-17T21:53:34.207Z,9.25
2022-09-17T21:56:06.949Z,9.27
2022-09-17T21:58:35.922Z,9.26
2022-09-17T22:01:08.087Z,9.27
2022-09-17T22:03:35.973Z,9.27
2022-09-17T22:06:05.960Z,9.26
2022-09-17T22:08:34.407Z,9.33
2022-09-17T22:11:07.236Z,9.30
2022-09-17T22:13:36.790Z,9.29
2022-09-17T22:16:06.077Z,9.32
2022-09-17T22:18:35.072Z,9.36
2022-09-17T22:21:02.859Z,9.36
2022-09-17T22:23:33.482Z,9.35
2022-09-17T22:26:02.271Z,9.37
2022-09-17T22:28:29.824Z,9.36
2022-09-17T22:31:02.045Z,9.37
2022-09-17T22:33:32.813Z,9.34
2022-09-17T22:36:04.436Z,9.41
2022-09-17T22:38:32.034Z,9.42
2022-09-17T22:41:04.295Z,9.47
2022-09-17T22:43:31.986Z,9.45
2022-09-17T22:46:00.987Z,9.41
2022-09-17T22:48:28.530Z,9.42
2022-09-17T22:50:56.064Z,9.44
2022-09-17T22:53:23.603Z,9.50
2022-09-17T22:55:55.033Z,9.52
2022-09-17T22:58:24.244Z,9.53
2022-09-17T23:00:53.037Z,9.61
2022-09-17T23:03:21.964Z,9.57
2022-09-17T23:05:49.575Z,9.63
2022-09-17T23:08:17.208Z,9.68
2022-09-17T23:10:44.836Z,9.67
2022-09-17T23:13:12.411Z,9.65
2022-09-17T23:15:40.496Z,9.64
2022-09-17T23:18:08.559Z,9.65
2022-09-17T23:20:37.525Z,9.64
2022-09-17T23:23:05.096Z,9.69
2022-09-17T23:25:33.270Z,9.64
2022-09-17T23:28:00.900Z,9.53
2022-09-17T23:30:28.990Z,9.62
2022-09-17T23:32:57.330Z,9.70
2022-09-17T23:35:25.155Z,9.78
2022-09-17T23:37:54.005Z,9.81
2022-09-17T23:40:22.161Z,9.89
2022-09-17T23:42:49.755Z,10.01
2022-09-17T23:45:17.433Z,9.98
2022-09-17T23:47:45.411Z,9.97
2022-09-17T23:50:13.248Z,10.06
2022-09-17T23:52:40.842Z,9.93
2022-09-17T23:55:10.576Z,9.92
2022-09-17T23:57:38.983Z,9.86
